Time;durP1;ratioP1;P1;durP2;ratioP2;P2;SDS_P1;SDS_P2;PMS_P1;PMS_P2;Temp;Humidity;BMP_temperature;BMP_pressure;BME280_temperature;BME280_humidity;BME280_pressure;Samples;Min_cycle;Max_cycle;Signal;HPM_P1;HPM_P2
2022/03/16 00:00:05;;;;;;;276.55;129.48;;;8.80;99.90;;;;;;5077436;28;20094;-58
2022/03/16 00:02:38;;;;;;;285.45;134.60;;;8.90;99.90;;;;;;5073886;28;20029;-58
2022/03/16 00:05:05;;;;;;;282.08;133.43;;;8.90;99.90;;;;;;5057103;28;20386;-58
2022/03/16 00:07:31;;;;;;;289.52;134.73;;;8.80;99.90;;;;;;5056971;28;20040;-59
2022/03/16 00:09:57;;;;;;;300.63;139.75;;;8.80;99.90;;;;;;5057007;28;20379;-58
2022/03/16 00:12:23;;;;;;;307.80;143.48;;;8.80;99.90;;;;;;5056819;28;20112;-58
2022/03/16 00:14:49;;;;;;;338.50;156.98;;;8.70;99.90;;;;;;5057200;28;20167;-59
2022/03/16 00:17:16;;;;;;;386.60;178.02;;;8.80;99.90;;;;;;5072632;28;20020;-59
2022/03/16 00:19:43;;;;;;;382.23;172.13;;;8.80;99.90;;;;;;5076618;28;20028;-58
2022/03/16 00:22:10;;;;;;;365.55;159.30;;;8.80;99.90;;;;;;5076738;28;20028;-58
2022/03/16 00:24:36;;;;;;;397.67;170.07;;;8.80;99.90;;;;;;5076852;28;20074;-58
2022/03/16 00:27:02;;;;;;;436.95;191.55;;;8.80;99.90;;;;;;5076383;28;20033;-59
2022/03/16 00:29:28;;;;;;;424.85;189.65;;;8.80;99.90;;;;;;5076483;28;20033;-59
2022/03/16 00:31:54;;;;;;;462.13;201.38;;;8.80;99.90;;;;;;5075017;28;20027;-59
2022/03/16 00:34:20;;;;;;;411.58;182.55;;;8.80;99.90;;;;;;5076435;28;20032;-58
2022/03/16 00:36:47;;;;;;;360.40;163.88;;;8.80;99.90;;;;;;5076435;28;20059;-58
2022/03/16 00:39:13;;;;;;;325.52;145.30;;;8.80;99.90;;;;;;5076484;28;20025;-58
2022/03/16 00:41:39;;;;;;;313.20;142.38;;;8.80;99.90;;;;;;5076442;28;20031;-58
2022/03/16 00:44:06;;;;;;;347.30;149.05;;;8.80;99.90;;;;;;5074929;28;20123;-58
2022/03/16 00:46:32;;;;;;;305.20;137.77;;;8.80;99.90;;;;;;5076308;28;20029;-58
2022/03/16 00:49:01;;;;;;;305.35;141.98;;;8.80;99.90;;;;;;5076218;28;20047;-58
2022/03/16 00:51:27;;;;;;;304.85;136.77;;;8.80;99.90;;;;;;5076334;28;20189;-58
2022/03/16 00:53:53;;;;;;;353.98;154.60;;;8.80;99.90;;;;;;5076175;28;20060;-59
2022/03/16 00:56:19;;;;;;;407.05;168.73;;;8.80;99.90;;;;;;5076132;28;20071;-59
2022/03/16 00:58:45;;;;;;;424.77;172.57;;;8.80;99.90;;;;;;5075838;28;20109;-58
2022/03/16 01:01:11;;;;;;;427.15;173.27;;;8.80;99.90;;;;;;5075823;28;20024;-58
2022/03/16 01:03:41;;;;;;;368.40;153.57;;;8.80;99.90;;;;;;5059439;28;20037;-58
2022/03/16 01:06:18;;;;;;;318.25;144.25;;;8.80;99.90;;;;;;5075818;28;20032;-58
2022/03/16 01:08:45;;;;;;;284.13;134.90;;;8.70;99.90;;;;;;5075838;28;20029;-58
2022/03/16 01:11:12;;;;;;;273.58;126.00;;;8.70;99.90;;;;;;5075803;28;20427;-58
2022/03/16 01:13:39;;;;;;;315.42;137.45;;;8.70;99.90;;;;;;5075675;28;20029;-58
2022/03/16 01:16:07;;;;;;;356.67;146.18;;;8.70;99.90;;;;;;5063890;28;20021;-58
2022/03/16 01:18:33;;;;;;;379.10;152.13;;;8.70;99.90;;;;;;5095894;28;20047;-58
2022/03/16 01:20:59;;;;;;;378.75;152.95;;;8.70;99.90;;;;;;5095769;28;20036;-58
2022/03/16 01:23:25;;;;;;;357.13;149.48;;;8.70;99.90;;;;;;5077626;28;20439;-58
2022/03/16 01:25:52;;;;;;;296.67;130.65;;;8.70;99.90;;;;;;5095756;28;20030;-58
2022/03/16 01:28:18;;;;;;;370.90;146.75;;;8.60;99.90;;;;;;5095754;28;20035;-58
2022/03/16 01:30:44;;;;;;;288.80;127.00;;;8.60;99.90;;;;;;5095617;28;20489;-58
2022/03/16 01:33:10;;;;;;;276.27;121.35;;;8.60;99.90;;;;;;5095313;28;20123;-58
2022/03/16 01:35:36;;;;;;;330.42;131.82;;;8.60;99.90;;;;;;5077364;28;20035;-58
2022/03/16 01:38:02;;;;;;;295.90;126.40;;;8.70;99.90;;;;;;5095487;28;20032;-58
2022/03/16 01:40:30;;;;;;;281.77;114.90;;;8.60;99.90;;;;;;5076858;28;20032;-58
2022/03/16 01:42:56;;;;;;;281.38;118.72;;;8.70;99.90;;;;;;5095289;28;20101;-58
2022/03/16 01:45:22;;;;;;;312.45;130.35;;;8.70;99.90;;;;;;5095329;28;20032;-58
2022/03/16 01:47:48;;;;;;;286.38;124.47;;;8.70;99.90;;;;;;5095271;28;20038;-58
2022/03/16 01:50:14;;;;;;;275.35;126.93;;;8.70;99.90;;;;;;5095318;28;20038;-58
2022/03/16 01:52:41;;;;;;;302.73;129.98;;;8.70;99.90;;;;;;5094664;28;20032;-59
2022/03/16 01:55:07;;;;;;;306.80;131.45;;;8.70;99.90;;;;;;5095158;28;20081;-58
2022/03/16 01:57:34;;;;;;;310.33;133.60;;;8.70;99.90;;;;;;5077277;28;20164;-58
2022/03/16 02:00:06;;;;;;;323.45;135.10;;;8.70;99.90;;;;;;5077145;28;20509;-58
2022/03/16 02:02:38;;;;;;;331.40;138.38;;;8.70;99.90;;;;;;5091747;28;20494;-58
2022/03/16 02:05:05;;;;;;;321.80;134.55;;;8.60;99.90;;;;;;5056875;28;20028;-58
2022/03/16 02:07:31;;;;;;;315.85;132.80;;;8.70;99.90;;;;;;5074837;28;20028;-58
2022/03/16 02:10:00;;;;;;;275.13;120.10;;;8.70;99.90;;;;;;5074572;28;20075;-58
2022/03/16 02:12:26;;;;;;;235.60;111.18;;;8.70;99.90;;;;;;5074544;28;20033;-58
2022/03/16 02:14:53;;;;;;;219.60;106.03;;;8.60;99.90;;;;;;5074565;28;20469;-58
2022/03/16 02:17:19;;;;;;;219.02;105.57;;;8.70;99.90;;;;;;5084989;28;20052;-58
2022/03/16 02:19:45;;;;;;;223.48;104.45;;;8.70;99.90;;;;;;5094712;28;20528;-58
2022/03/16 02:22:14;;;;;;;206.70;102.03;;;8.70;99.90;;;;;;5094838;28;20032;-58
2022/03/16 02:24:40;;;;;;;205.90;100.15;;;8.70;99.90;;;;;;5094664;28;20032;-58
2022/03/16 02:27:06;;;;;;;190.88;97.80;;;8.70;99.90;;;;;;5094808;28;20069;-58
2022/03/16 02:29:32;;;;;;;206.98;102.80;;;8.70;99.90;;;;;;5094831;28;20031;-58
2022/03/16 02:31:58;;;;;;;195.23;95.43;;;8.60;99.90;;;;;;5094634;28;20461;-58
2022/03/16 02:34:25;;;;;;;256.20;113.93;;;8.70;99.90;;;;;;5094346;28;20079;-59
2022/03/16 02:36:51;;;;;;;453.80;167.57;;;8.70;99.90;;;;;;5094694;28;20030;-58
2022/03/16 02:39:17;;;;;;;282.70;118.13;;;8.70;99.90;;;;;;5094525;28;20457;-58
2022/03/16 02:41:47;;;;;;;276.77;116.70;;;8.70;99.90;;;;;;5094515;28;20034;-58
2022/03/16 02:44:14;;;;;;;221.50;101.78;;;8.70;99.90;;;;;;5094700;28;20035;-58
2022/03/16 02:46:39;;;;;;;223.25;103.88;;;8.70;99.90;;;;;;5094723;28;20036;-58
2022/03/16 02:49:05;;;;;;;209.60;100.15;;;8.70;99.90;;;;;;5094597;28;20050;-58
2022/03/16 02:51:31;;;;;;;203.30;95.88;;;8.70;99.90;;;;;;5094443;28;20440;-58
2022/03/16 02:53:57;;;;;;;216.38;101.10;;;8.70;99.90;;;;;;5094200;28;20169;-58
2022/03/16 02:56:27;;;;;;;201.43;102.38;;;8.70;99.90;;;;;;5094523;28;20617;-58
2022/03/16 02:58:54;;;;;;;191.38;93.85;;;8.60;99.90;;;;;;5094280;28;20032;-58
2022/03/16 03:01:20;;;;;;;196.23;94.00;;;8.60;99.90;;;;;;5094560;28;20049;-58
2022/03/16 03:03:46;;;;;;;184.48;86.32;;;8.60;99.90;;;;;;5082723;28;20032;-58
2022/03/16 03:06:12;;;;;;;206.55;97.53;;;8.60;99.90;;;;;;5078409;28;20431;-58
2022/03/16 03:08:38;;;;;;;198.75;100.05;;;8.60;99.90;;;;;;5078076;28;20033;-58
2022/03/16 03:11:04;;;;;;;212.35;101.70;;;8.60;99.90;;;;;;5078031;28;20036;-58
2022/03/16 03:13:30;;;;;;;206.45;99.88;;;8.60;99.90;;;;;;5077709;28;20036;-58
2022/03/16 03:15:56;;;;;;;197.95;94.60;;;8.60;99.90;;;;;;5077944;28;20024;-58
2022/03/16 03:18:22;;;;;;;201.00;94.18;;;8.60;99.90;;;;;;5077910;28;20417;-58
2022/03/16 03:20:47;;;;;;;177.57;88.05;;;8.60;99.90;;;;;;5077865;28;20119;-58
2022/03/16 03:23:13;;;;;;;196.40;91.32;;;8.50;99.90;;;;;;5077768;28;20399;-58
2022/03/16 03:25:39;;;;;;;193.77;92.22;;;8.50;99.90;;;;;;5077868;28;20031;-58
2022/03/16 03:28:05;;;;;;;183.88;90.38;;;8.50;99.90;;;;;;5077739;28;20028;-58
2022/03/16 03:30:31;;;;;;;183.00;88.43;;;8.50;99.90;;;;;;5077743;28;20033;-58
2022/03/16 03:32:57;;;;;;;176.27;84.15;;;8.50;99.90;;;;;;5077135;28;20438;-58
2022/03/16 03:35:23;;;;;;;172.75;81.55;;;8.50;99.90;;;;;;5077939;28;20025;-58
2022/03/16 03:37:51;;;;;;;181.00;85.80;;;8.50;99.90;;;;;;5077474;28;20028;-58
2022/03/16 03:40:17;;;;;;;171.85;81.55;;;8.50;99.90;;;;;;5077507;28;20103;-58
2022/03/16 03:42:42;;;;;;;164.30;77.93;;;8.60;99.90;;;;;;5077168;28;20063;-58
2022/03/16 03:45:09;;;;;;;156.82;76.57;;;8.50;99.90;;;;;;5077497;28;20559;-58
2022/03/16 03:47:34;;;;;;;157.98;75.90;;;8.50;99.90;;;;;;5077514;28;20051;-59
2022/03/16 03:50:02;;;;;;;152.27;76.35;;;8.50;99.90;;;;;;5077190;28;20041;-58
2022/03/16 03:52:28;;;;;;;156.32;75.03;;;8.50;99.90;;;;;;5077225;28;20107;-58
2022/03/16 03:54:54;;;;;;;141.05;69.78;;;8.50;99.90;;;;;;5077197;28;20454;-58
2022/03/16 03:57:19;;;;;;;139.88;68.80;;;8.50;99.90;;;;;;5077184;28;20021;-58
2022/03/16 03:59:45;;;;;;;143.07;69.70;;;8.50;99.90;;;;;;5077107;28;20067;-58
2022/03/16 04:02:11;;;;;;;168.57;82.63;;;8.40;99.90;;;;;;5077095;28;20546;-58
2022/03/16 04:04:37;;;;;;;163.90;83.35;;;8.50;99.90;;;;;;5057474;28;20068;-58
2022/03/16 04:07:03;;;;;;;191.93;89.30;;;8.50;99.90;;;;;;5057010;28;20083;-58
2022/03/16 04:09:29;;;;;;;173.75;82.65;;;8.50;99.90;;;;;;5056977;28;20029;-58
2022/03/16 04:11:55;;;;;;;179.23;85.60;;;8.50;99.90;;;;;;5056863;28;20088;-58
2022/03/16 04:14:21;;;;;;;190.90;92.93;;;8.50;99.90;;;;;;5056562;28;20047;-58
2022/03/16 04:16:47;;;;;;;211.75;94.35;;;8.50;99.90;;;;;;5068750;28;20043;-58
2022/03/16 04:19:13;;;;;;;172.75;81.90;;;8.50;99.90;;;;;;5076712;28;20103;-58
2022/03/16 04:21:39;;;;;;;170.38;80.80;;;8.50;99.90;;;;;;5076810;28;20448;-58
2022/03/16 04:24:05;;;;;;;171.07;76.97;;;8.50;99.90;;;;;;5076902;28;20035;-58
2022/03/16 04:26:31;;;;;;;177.18;76.43;;;8.50;99.90;;;;;;5076696;28;20537;-58
2022/03/16 04:28:57;;;;;;;172.50;76.78;;;8.40;99.90;;;;;;5076894;28;20025;-58
2022/03/16 04:31:23;;;;;;;171.23;74.65;;;8.40;99.90;;;;;;5076488;28;20032;-58
2022/03/16 04:33:49;;;;;;;159.68;69.60;;;8.30;99.90;;;;;;5076257;28;20083;-58
2022/03/16 04:36:16;;;;;;;170.25;71.47;;;8.30;99.90;;;;;;5076783;28;20095;-58
2022/03/16 04:38:42;;;;;;;154.25;68.93;;;8.30;99.90;;;;;;5076616;28;20150;-58
2022/03/16 04:41:08;;;;;;;139.93;66.80;;;8.30;99.90;;;;;;5076603;28;20036;-58
2022/03/16 04:43:34;;;;;;;146.55;71.35;;;8.30;99.90;;;;;;5076361;28;20039;-58
2022/03/16 04:46:00;;;;;;;150.43;69.32;;;8.30;99.90;;;;;;5076421;28;20059;-58
2022/03/16 04:48:26;;;;;;;156.75;74.72;;;8.30;99.90;;;;;;5076238;28;20032;-58
2022/03/16 04:50:52;;;;;;;153.65;69.45;;;8.20;99.90;;;;;;5075977;28;20545;-58
2022/03/16 04:53:18;;;;;;;144.77;68.40;;;8.20;99.90;;;;;;5075989;28;20059;-58
2022/03/16 04:55:44;;;;;;;135.23;67.28;;;8.20;99.90;;;;;;5075905;28;20032;-58
2022/03/16 04:58:10;;;;;;;140.65;68.45;;;8.20;99.90;;;;;;5076059;28;20024;-58
2022/03/16 05:00:37;;;;;;;138.75;66.82;;;8.10;99.90;;;;;;5075976;28;20035;-58
2022/03/16 05:03:03;;;;;;;135.43;63.95;;;8.10;99.90;;;;;;5069461;28;20408;-58
2022/03/16 05:05:30;;;;;;;128.23;61.15;;;8.10;99.90;;;;;;5055774;28;20040;-58
2022/03/16 05:07:56;;;;;;;139.27;62.50;;;8.00;99.90;;;;;;5055587;28;20032;-58
2022/03/16 05:10:22;;;;;;;140.52;65.32;;;8.00;99.90;;;;;;5055618;28;20392;-58
2022/03/16 05:12:49;;;;;;;126.47;64.28;;;7.90;99.90;;;;;;5055568;28;20032;-58
2022/03/16 05:15:17;;;;;;;171.07;76.28;;;7.90;99.90;;;;;;5055803;28;20084;-58
2022/03/16 05:17:45;;;;;;;221.52;91.35;;;7.90;99.90;;;;;;5075202;28;20027;-58
2022/03/16 05:20:12;;;;;;;231.07;98.88;;;7.90;99.90;;;;;;5075588;28;20111;-58
2022/03/16 05:22:48;;;;;;;210.60;96.95;;;7.90;99.90;;;;;;5075386;28;20027;-58
2022/03/16 05:25:18;;;;;;;200.05;94.80;;;8.00;99.90;;;;;;5075632;28;20480;-58
2022/03/16 05:27:44;;;;;;;209.75;99.53;;;8.00;99.90;;;;;;5074763;28;20644;-58
2022/03/16 05:30:11;;;;;;;180.27;88.50;;;8.00;99.90;;;;;;5075174;28;20075;-58
2022/03/16 05:32:41;;;;;;;192.70;94.35;;;8.00;99.90;;;;;;5074997;28;20387;-58
2022/03/16 05:35:08;;;;;;;202.27;92.15;;;8.00;99.90;;;;;;5075274;28;20029;-58
2022/03/16 05:37:35;;;;;;;210.10;94.03;;;8.00;99.90;;;;;;5075286;28;20040;-58
2022/03/16 05:40:00;;;;;;;198.90;85.00;;;8.00;99.90;;;;;;5075246;28;20095;-58
2022/03/16 05:42:26;;;;;;;210.45;91.22;;;8.00;99.90;;;;;;5075200;28;20485;-58
2022/03/16 05:44:54;;;;;;;202.60;89.45;;;8.10;99.90;;;;;;5074993;28;20051;-58
2022/03/16 05:47:22;;;;;;;187.35;80.78;;;8.10;99.90;;;;;;5075008;28;20024;-58
2022/03/16 05:49:53;;;;;;;237.25;86.85;;;8.10;99.90;;;;;;5074755;28;20086;-58
2022/03/16 05:52:21;;;;;;;225.50;96.20;;;8.10;99.90;;;;;;5075145;28;20029;-58
2022/03/16 05:54:52;;;;;;;219.05;91.90;;;8.20;99.90;;;;;;5074843;28;20020;-58
2022/03/16 05:57:18;;;;;;;184.38;76.43;;;8.30;99.90;;;;;;5074929;28;20039;-58
2022/03/16 05:59:45;;;;;;;200.00;94.82;;;8.30;99.90;;;;;;5074841;28;20031;-58
2022/03/16 06:02:11;;;;;;;237.07;106.28;;;8.30;99.90;;;;;;5074602;28;20355;-59
2022/03/16 06:04:39;;;;;;;247.75;113.20;;;8.40;99.90;;;;;;5055146;28;20021;-59
2022/03/16 06:07:06;;;;;;;293.35;126.43;;;8.40;99.90;;;;;;5054704;28;20033;-59
2022/03/16 06:09:32;;;;;;;301.65;123.80;;;8.50;99.90;;;;;;5054469;28;20036;-59
2022/03/16 06:11:59;;;;;;;242.57;102.28;;;8.60;99.90;;;;;;5054544;28;20033;-59
2022/03/16 06:14:25;;;;;;;295.27;115.20;;;8.60;99.90;;;;;;5054530;28;20039;-59
2022/03/16 06:16:52;;;;;;;252.48;99.28;;;8.60;99.90;;;;;;5062537;28;20017;-59
2022/03/16 06:19:19;;;;;;;226.38;88.65;;;8.70;99.90;;;;;;5045788;28;20084;-59
2022/03/16 06:21:45;;;;;;;200.75;83.38;;;8.80;99.90;;;;;;5037913;28;20426;-59
2022/03/16 06:24:11;;;;;;;271.95;95.78;;;8.80;99.90;;;;;;5043806;28;20033;-59
2022/03/16 06:26:38;;;;;;;228.75;90.88;;;8.90;99.90;;;;;;5058783;28;20029;-59
2022/03/16 06:29:04;;;;;;;182.38;81.32;;;9.00;99.90;;;;;;5068322;28;20033;-59
2022/03/16 06:31:30;;;;;;;315.77;118.47;;;9.10;99.90;;;;;;5072204;28;20720;-59
2022/03/16 06:33:56;;;;;;;256.42;101.03;;;9.20;99.90;;;;;;5041147;28;20052;-59
2022/03/16 06:36:22;;;;;;;316.98;122.03;;;9.30;99.90;;;;;;5041908;28;20037;-59
2022/03/16 06:38:48;;;;;;;254.48;104.13;;;9.40;99.90;;;;;;5033954;28;20030;-58
2022/03/16 06:41:16;;;;;;;186.15;87.53;;;9.50;99.90;;;;;;5042408;28;20025;-59
2022/03/16 06:43:42;;;;;;;273.60;110.93;;;9.60;99.90;;;;;;5046195;28;20029;-58
2022/03/16 06:46:08;;;;;;;191.50;91.30;;;9.70;99.90;;;;;;5042402;28;20036;-58
2022/03/16 06:48:33;;;;;;;180.68;88.40;;;9.80;99.90;;;;;;5042442;28;20047;-58
2022/03/16 06:50:59;;;;;;;157.07;82.45;;;9.90;99.90;;;;;;5052030;28;20767;-58
2022/03/16 06:53:27;;;;;;;198.77;90.03;;;10.00;99.90;;;;;;5047966;28;20120;-58
2022/03/16 06:55:54;;;;;;;188.00;88.55;;;10.20;99.90;;;;;;5051267;28;20441;-58
2022/03/16 06:58:20;;;;;;;184.98;86.70;;;10.30;99.90;;;;;;5043452;28;20382;-58
2022/03/16 07:00:47;;;;;;;202.13;97.05;;;10.30;99.90;;;;;;5063719;28;20025;-58
2022/03/16 07:03:13;;;;;;;199.93;94.90;;;10.50;99.90;;;;;;5048790;28;20020;-58
2022/03/16 07:05:40;;;;;;;193.32;98.50;;;10.60;99.90;;;;;;5041948;28;20156;-58
2022/03/16 07:23:36;;;;;;;196.52;87.32;;;11.80;99.90;;;;;;5038034;28;20036;-60
2022/03/16 07:26:02;;;;;;;217.60;94.38;;;12.30;99.90;;;;;;5043663;28;20033;-60
2022/03/16 07:28:28;;;;;;;204.45;98.60;;;12.60;99.90;;;;;;5030517;28;20025;-60
2022/03/16 07:30:55;;;;;;;204.68;96.00;;;12.70;99.80;;;;;;5043594;28;20025;-60
2022/03/16 07:33:21;;;;;;;204.95;95.70;;;13.00;99.10;;;;;;5048521;28;20087;-60
2022/03/16 07:35:48;;;;;;;189.43;86.85;;;13.50;98.70;;;;;;5057883;28;20032;-60
2022/03/16 07:38:14;;;;;;;200.93;93.72;;;13.90;97.10;;;;;;5064249;28;20028;-60
2022/03/16 07:40:40;;;;;;;196.38;94.05;;;14.20;96.60;;;;;;5062173;28;20029;-60
2022/03/16 07:43:06;;;;;;;212.00;98.07;;;14.50;95.60;;;;;;5063237;28;20032;-59
2022/03/16 07:45:34;;;;;;;209.55;102.07;;;14.80;94.50;;;;;;5055518;28;20048;-59
2022/03/16 07:48:00;;;;;;;233.15;108.18;;;15.10;93.60;;;;;;5062411;28;20032;-60
2022/03/16 07:50:27;;;;;;;215.98;104.55;;;15.40;93.30;;;;;;5062375;28;20115;-59
2022/03/16 07:52:54;;;;;;;196.15;95.30;;;15.40;89.20;;;;;;5052284;28;20054;-60
2022/03/16 07:55:20;;;;;;;179.00;85.63;;;15.30;86.10;;;;;;5073320;28;20029;-60
2022/03/16 07:57:46;;;;;;;179.90;86.35;;;15.60;87.50;;;;;;5084481;28;20483;-60
2022/03/16 08:00:13;;;;;;;177.75;80.82;;;15.90;81.70;;;;;;5070694;28;20363;-60
2022/03/16 08:02:40;;;;;;;134.30;64.57;;;16.20;74.80;;;;;;5070758;28;20182;-59
2022/03/16 08:05:07;;;;;;;87.75;42.30;;;16.50;66.60;;;;;;5079505;28;20025;-59
2022/03/16 08:07:33;;;;;;;118.45;40.75;;;16.60;55.70;;;;;;5070574;28;20070;-60
2022/03/16 08:09:59;;;;;;;56.58;27.33;;;17.00;61.90;;;;;;5074464;28;20036;-60
2022/03/16 08:12:26;;;;;;;38.25;20.95;;;17.10;48.80;;;;;;5072977;28;20082;-60
2022/03/16 08:14:53;;;;;;;56.65;23.33;;;17.20;46.90;;;;;;5061767;28;19931;-60
2022/03/16 08:17:19;;;;;;;54.72;21.73;;;17.30;44.50;;;;;;5071370;28;20075;-59
2022/03/16 08:19:45;;;;;;;38.33;19.17;;;17.50;40.70;;;;;;5069339;28;20104;-60
2022/03/16 08:22:11;;;;;;;36.70;15.88;;;17.70;40.10;;;;;;5070957;28;20053;-60
2022/03/16 08:24:37;;;;;;;38.78;16.13;;;17.80;38.40;;;;;;5070245;28;20375;-60
2022/03/16 08:27:03;;;;;;;33.88;13.57;;;18.00;37.90;;;;;;5060215;28;20453;-60
2022/03/16 08:29:30;;;;;;;25.38;14.55;;;18.00;36.20;;;;;;5072453;28;20036;-60
2022/03/16 08:31:57;;;;;;;32.78;14.68;;;18.30;35.20;;;;;;5064917;28;20454;-60
2022/03/16 08:34:23;;;;;;;33.20;15.07;;;18.50;35.60;;;;;;5038692;28;20053;-60
2022/03/16 08:36:51;;;;;;;35.60;15.73;;;18.40;35.20;;;;;;5051609;28;20061;-60
2022/03/16 08:39:17;;;;;;;150.00;23.90;;;18.60;34.30;;;;;;5042514;28;20033;-60
2022/03/16 08:41:43;;;;;;;30.10;12.70;;;18.60;33.60;;;;;;5052965;28;20029;-60
2022/03/16 08:44:09;;;;;;;24.92;9.38;;;18.70;32.20;;;;;;5043135;28;20044;-60
2022/03/16 08:46:35;;;;;;;66.43;13.77;;;18.90;31.70;;;;;;5049976;28;20028;-60
2022/03/16 08:49:01;;;;;;;36.33;12.02;;;18.90;31.40;;;;;;5047358;28;20461;-60
2022/03/16 08:51:27;;;;;;;25.73;10.75;;;19.70;31.50;;;;;;5060758;28;20398;-60
2022/03/16 08:53:53;;;;;;;16.65;9.85;;;19.40;30.80;;;;;;5047084;28;20037;-60
2022/03/16 08:56:19;;;;;;;28.13;12.05;;;19.50;30.40;;;;;;5028556;28;20021;-60
2022/03/16 08:58:45;;;;;;;25.40;13.60;;;19.70;30.50;;;;;;5051727;28;20069;-60
2022/03/16 09:01:10;;;;;;;25.35;13.52;;;19.60;31.00;;;;;;5056955;28;20032;-60
2022/03/16 09:03:36;;;;;;;33.85;15.10;;;19.80;30.00;;;;;;5038721;28;20021;-60
2022/03/16 09:06:03;;;;;;;42.08;16.02;;;19.50;29.60;;;;;;5062501;28;20028;-60
2022/03/16 09:08:29;;;;;;;20.52;9.55;;;19.60;30.30;;;;;;5060966;28;20033;-60
2022/03/16 09:10:57;;;;;;;22.13;8.55;;;19.80;30.50;;;;;;5056814;28;20120;-60
2022/03/16 09:13:23;;;;;;;15.82;6.18;;;19.90;29.90;;;;;;5048365;28;20064;-60
2022/03/16 09:15:51;;;;;;;17.42;6.68;;;20.00;29.40;;;;;;5047307;28;20108;-60
2022/03/16 09:18:22;;;;;;;17.33;7.07;;;20.30;29.50;;;;;;5041739;28;20021;-60
2022/03/16 09:20:48;;;;;;;13.50;5.85;;;20.30;28.90;;;;;;5042574;28;20028;-60
2022/03/16 09:23:14;;;;;;;20.65;7.03;;;20.60;28.70;;;;;;5045013;28;20029;-60
2022/03/16 09:25:43;;;;;;;23.27;5.90;;;20.60;28.60;;;;;;5052424;28;20055;-60
2022/03/16 09:28:09;;;;;;;14.05;5.30;;;20.40;28.50;;;;;;5043586;28;20044;-60
2022/03/16 09:30:36;;;;;;;21.45;7.15;;;20.80;29.20;;;;;;5042457;28;20074;-60
2022/03/16 09:33:03;;;;;;;16.45;5.88;;;20.70;28.30;;;;;;5029069;28;20052;-61
2022/03/16 09:35:30;;;;;;;9.85;4.82;;;20.90;29.00;;;;;;5067996;28;20032;-61
2022/03/16 09:37:58;;;;;;;20.17;5.22;;;20.90;28.20;;;;;;5064636;28;20043;-59
2022/03/16 09:40:25;;;;;;;8.48;4.30;;;20.50;27.90;;;;;;5061579;28;20551;-59
2022/03/16 09:42:54;;;;;;;16.48;6.80;;;20.70;28.50;;;;;;5060086;28;20028;-59
2022/03/16 09:45:21;;;;;;;18.30;6.32;;;20.30;28.50;;;;;;5069953;28;20028;-59
2022/03/16 09:47:49;;;;;;;13.25;6.07;;;20.40;29.10;;;;;;5061193;28;20057;-58
2022/03/16 09:50:19;;;;;;;13.30;6.60;;;20.50;29.60;;;;;;5058242;28;20032;-59
2022/03/16 09:52:46;;;;;;;16.52;8.00;;;20.10;29.20;;;;;;5061824;28;20032;-59
2022/03/16 09:55:14;;;;;;;18.52;6.85;;;20.50;30.10;;;;;;5069373;28;20063;-60
2022/03/16 09:57:41;;;;;;;15.80;7.68;;;20.90;29.70;;;;;;5063563;28;20106;-61
2022/03/16 10:00:12;;;;;;;22.92;9.40;;;21.80;29.50;;;;;;5063057;28;20043;-60
2022/03/16 10:02:39;;;;;;;;;;;22.60;29.10;;;;;;5065716;28;20021;-62
2022/03/16 10:05:10;;;;;;;23.98;8.75;;;22.40;28.40;;;;;;5061189;28;20007;-59
2022/03/16 10:07:37;;;;;;;13.40;7.97;;;21.40;27.90;;;;;;5074836;28;20065;-59
2022/03/16 10:15:37;;;;;;;16.92;8.75;;;20.30;30.40;;;;;;5061181;28;20070;-59
2022/03/16 10:18:04;;;;;;;34.28;10.13;;;20.40;31.60;;;;;;5064072;28;20104;-59
2022/03/16 10:20:39;;;;;;;24.35;12.13;;;20.30;31.90;;;;;;5060444;28;20422;-59
2022/03/16 10:23:14;;;;;;;17.13;6.45;;;20.30;33.60;;;;;;5067864;28;20062;-59
2022/03/16 10:25:46;;;;;;;17.90;7.80;;;19.80;34.00;;;;;;5066529;28;20939;-59
2022/03/16 10:28:18;;;;;;;20.20;7.53;;;19.30;35.80;;;;;;5060455;28;20071;-59
2022/03/16 10:31:05;;;;;;;15.00;5.28;;;19.30;37.70;;;;;;5065515;28;20351;-59
2022/03/16 10:33:49;;;;;;;22.15;6.25;;;19.50;38.90;;;;;;5070615;28;20048;-59
2022/03/16 10:36:18;;;;;;;17.98;5.97;;;19.50;39.60;;;;;;5080594;28;20028;-59
2022/03/16 10:38:52;;;;;;;16.58;5.30;;;19.20;38.70;;;;;;5069428;28;20117;-59
2022/03/16 10:47:01;;;;;;;10.88;5.28;;;19.60;40.50;;;;;;5059613;28;20036;-60
2022/03/16 10:49:34;;;;;;;15.20;5.43;;;19.60;40.50;;;;;;5063992;28;20036;-60
2022/03/16 10:52:07;;;;;;;10.32;5.20;;;19.80;39.90;;;;;;5063001;28;20029;-60
2022/03/16 10:54:43;;;;;;;18.40;5.95;;;19.60;39.10;;;;;;5068132;28;20500;-60
2022/03/16 10:57:12;;;;;;;16.90;6.25;;;19.20;40.00;;;;;;5058822;28;20021;-61
2022/03/16 10:59:43;;;;;;;16.77;5.93;;;19.30;41.70;;;;;;5069228;28;20078;-60
2022/03/16 11:02:14;;;;;;;16.08;5.80;;;19.00;41.40;;;;;;5067006;28;20100;-60
2022/03/16 11:04:42;;;;;;;;;;;18.90;44.30;;;;;;5060213;28;20020;-60
2022/03/16 11:07:08;;;;;;;10.15;5.10;;;18.60;43.20;;;;;;5060697;28;20008;-60
2022/03/16 11:09:42;;;;;;;13.98;5.50;;;18.20;44.70;;;;;;5065317;28;20040;-60
2022/03/16 11:14:53;;;;;;;26.25;6.07;;;18.10;47.20;;;;;;5060406;28;20058;-60
2022/03/16 11:17:20;;;;;;;19.30;6.57;;;17.80;49.60;;;;;;5061810;28;20104;-59
2022/03/16 11:19:51;;;;;;;18.08;6.97;;;17.80;48.40;;;;;;5067195;28;20071;-61
2022/03/16 11:22:24;;;;;;;22.15;8.10;;;17.80;48.40;;;;;;5051546;28;20029;-60
2022/03/16 11:25:08;;;;;;;11.98;6.40;;;17.90;48.30;;;;;;5069473;28;20052;-60
2022/03/16 11:27:54;;;;;;;20.00;7.95;;;17.80;49.50;;;;;;5073109;28;20036;-61
2022/03/16 11:30:35;;;;;;;16.88;6.65;;;17.90;49.70;;;;;;5062600;28;20031;-60
2022/03/16 11:33:10;;;;;;;21.73;7.78;;;18.00;49.00;;;;;;5074869;28;20120;-59
2022/03/16 11:35:44;;;;;;;14.60;6.40;;;18.30;52.80;;;;;;5061501;28;20021;-60
2022/03/16 11:38:15;;;;;;;21.08;7.00;;;18.30;48.00;;;;;;5069750;28;20019;-60
2022/03/16 11:40:51;;;;;;;27.35;9.60;;;18.10;50.40;;;;;;5072400;28;20028;-60
2022/03/16 11:43:23;;;;;;;46.28;12.02;;;18.00;52.30;;;;;;5065238;28;20079;-60
2022/03/16 11:45:59;;;;;;;18.80;7.90;;;18.00;52.30;;;;;;5070026;28;20025;-61
2022/03/16 11:48:37;;;;;;;21.88;6.22;;;18.00;52.90;;;;;;5065047;28;20427;-61
2022/03/16 11:51:08;;;;;;;19.77;7.05;;;17.70;55.00;;;;;;5064727;28;20040;-60
2022/03/16 11:54:08;;;;;;;13.27;6.82;;;17.40;59.20;;;;;;5070413;28;20052;-61
2022/03/16 11:56:42;;;;;;;19.88;6.80;;;17.10;61.90;;;;;;5073642;28;20028;-60
2022/03/16 11:59:17;;;;;;;27.52;8.15;;;17.00;66.10;;;;;;5063289;28;20024;-60
2022/03/16 12:01:52;;;;;;;23.13;8.48;;;16.90;66.90;;;;;;5067996;28;20024;-61
2022/03/16 12:04:40;;;;;;;21.52;7.55;;;16.90;72.60;;;;;;5051627;28;20032;-61
2022/03/16 12:07:14;;;;;;;19.75;7.30;;;16.70;71.00;;;;;;5078959;28;20029;-59
2022/03/16 12:09:45;;;;;;;25.83;7.90;;;16.60;72.50;;;;;;5084342;28;20081;-60
2022/03/16 12:15:11;;;;;;;22.60;8.30;;;16.50;87.10;;;;;;5077617;28;20093;-59
2022/03/16 12:17:39;;;;;;;18.77;8.38;;;16.30;89.80;;;;;;5082128;28;20028;-59
2022/03/16 12:20:11;;;;;;;26.27;8.38;;;16.20;90.80;;;;;;5079193;28;20143;-59
2022/03/16 12:22:39;;;;;;;20.33;7.43;;;16.00;91.20;;;;;;5075667;28;20033;-59
2022/03/16 12:25:26;;;;;;;20.60;8.57;;;16.00;91.90;;;;;;5066124;28;20060;-58
2022/03/16 12:30:55;;;;;;;28.67;9.02;;;15.90;93.70;;;;;;5073783;28;20432;-60
2022/03/16 12:33:31;;;;;;;24.83;8.48;;;15.80;94.40;;;;;;5071021;28;20040;-59
2022/03/16 12:36:11;;;;;;;21.13;7.50;;;15.70;92.90;;;;;;5074116;28;20029;-59
2022/03/16 12:38:40;;;;;;;18.80;8.80;;;15.70;93.90;;;;;;5064356;28;20017;-59
2022/03/16 12:43:57;;;;;;;18.45;7.40;;;15.50;95.60;;;;;;5067465;28;20040;-61
2022/03/16 12:46:29;;;;;;;22.88;10.02;;;15.40;93.50;;;;;;5064139;28;20029;-59
2022/03/16 12:49:04;;;;;;;18.90;7.68;;;15.30;96.70;;;;;;5084103;28;20420;-65
2022/03/16 12:51:37;;;;;;;21.67;8.50;;;15.20;96.40;;;;;;5074727;28;20740;-65
2022/03/16 12:54:07;;;;;;;20.10;9.07;;;15.20;97.40;;;;;;5069900;28;20320;-65
2022/03/16 12:56:39;;;;;;;25.50;12.23;;;15.10;98.80;;;;;;5076964;28;20035;-62
2022/03/16 12:59:06;;;;;;;24.15;12.85;;;15.10;99.10;;;;;;5049369;28;20037;-61
2022/03/16 13:01:32;;;;;;;29.10;11.02;;;15.00;99.90;;;;;;5081474;28;20073;-60
2022/03/16 13:04:03;;;;;;;54.05;13.52;;;15.00;97.90;;;;;;5071888;28;20036;-60
2022/03/16 13:06:35;;;;;;;49.30;14.50;;;15.00;98.70;;;;;;5082232;28;20881;-60